createdAt,value
2022-12-01T00:01:40.700Z,2.76
2022-12-01T00:06:39.426Z,2.59
2022-12-01T00:11:38.939Z,2.67
2022-12-01T00:16:38.436Z,3.03
2022-12-01T00:21:37.242Z,2.82
2022-12-01T00:26:38.096Z,2.96
2022-12-01T00:31:37.140Z,2.23
2022-12-01T00:36:36.060Z,1.87
2022-12-01T00:41:34.842Z,2.36
2022-12-01T00:46:33.618Z,2.20
2022-12-01T00:51:32.445Z,2.46
2022-12-01T00:56:31.214Z,2.51
2022-12-01T01:01:30.180Z,2.49
2022-12-01T01:06:29.704Z,2.27
2022-12-01T01:11:28.540Z,2.28
2022-12-01T01:16:27.743Z,2.23
2022-12-01T01:21:27.544Z,2.59
2022-12-01T01:26:29.181Z,2.82
2022-12-01T01:31:29.938Z,2.39
2022-12-01T01:36:28.877Z,2.18
2022-12-01T01:41:28.914Z,2.52
2022-12-01T01:46:27.821Z,2.87
2022-12-01T01:51:46.896Z,3.11
2022-12-01T01:56:47.746Z,2.89
2022-12-01T02:01:52.048Z,2.76
2022-12-01T02:06:50.961Z,2.24
2022-12-01T02:12:24.375Z,2.20
2022-12-01T02:17:41.985Z,2.35
2022-12-01T02:23:16.256Z,2.14
2022-12-01T02:28:33.772Z,1.88
2022-12-01T02:33:35.714Z,2.44
2022-12-01T02:38:47.904Z,2.78
2022-12-01T02:44:04.983Z,2.78
2022-12-01T02:49:26.849Z,2.55
2022-12-01T02:54:29.924Z,2.71
2022-12-01T02:59:28.694Z,2.42
2022-12-01T03:04:59.809Z,2.55
2022-12-01T03:10:35.700Z,2.94
2022-12-01T03:15:35.807Z,2.34
2022-12-01T03:20:39.140Z,2.23
2022-12-01T03:25:41.999Z,1.60
2022-12-01T03:30:43.334Z,1.63
2022-12-01T03:35:54.168Z,2.02
2022-12-01T03:40:58.162Z,2.01
2022-12-01T03:46:19.206Z,2.31
2022-12-01T03:51:31.703Z,2.47
2022-12-01T03:56:44.574Z,2.56
2022-12-01T04:01:54.157Z,2.57
2022-12-01T04:06:53.344Z,2.11
2022-12-01T04:12:10.889Z,2.55
2022-12-01T04:17:09.608Z,2.88
2022-12-01T04:22:08.459Z,2.95
2022-12-01T04:27:07.171Z,2.80
2022-12-01T04:32:06.028Z,2.51
2022-12-01T04:37:06.142Z,2.61
2022-12-01T04:42:05.392Z,2.68
2022-12-01T04:47:05.722Z,2.53
2022-12-01T04:52:04.872Z,2.56
2022-12-01T04:57:03.781Z,2.76
2022-12-01T05:02:04.151Z,2.96
2022-12-01T05:07:03.082Z,2.91
2022-12-01T05:12:01.852Z,2.75
2022-12-01T05:17:00.703Z,2.65
2022-12-01T05:21:59.444Z,2.76
2022-12-01T05:26:58.185Z,6.83
2022-12-01T05:31:56.977Z,9.37
2022-12-01T05:36:55.784Z,9.56
2022-12-01T05:41:54.672Z,10.85
2022-12-01T05:46:53.575Z,11.05
2022-12-01T05:51:52.327Z,12.31
2022-12-01T05:56:51.105Z,8.39
2022-12-01T06:01:50.153Z,5.24
2022-12-01T06:06:49.203Z,4.49
2022-12-01T06:11:52.221Z,3.42
2022-12-01T06:16:51.380Z,3.58
2022-12-01T06:21:50.145Z,3.29
2022-12-01T06:26:49.395Z,3.01
2022-12-01T06:31:51.144Z,2.65
2022-12-01T06:36:50.154Z,2.69
2022-12-01T06:41:49.269Z,2.48
2022-12-01T06:46:52.769Z,2.42
2022-12-01T06:51:51.573Z,2.11
2022-12-01T06:56:50.406Z,2.22
2022-12-01T07:01:49.623Z,2.11
2022-12-01T07:06:48.513Z,2.18
2022-12-01T07:11:47.399Z,2.45
2022-12-01T07:16:46.252Z,2.10
2022-12-01T07:21:45.384Z,2.44
2022-12-01T07:26:44.771Z,2.30
2022-12-01T07:31:44.155Z,2.39
2022-12-01T07:36:42.993Z,2.17
2022-12-01T07:41:41.836Z,1.95
2022-12-01T07:46:40.606Z,2.17
2022-12-01T07:51:39.679Z,2.30
2022-12-01T07:56:38.452Z,2.14
2022-12-01T08:01:40.352Z,2.45
2022-12-01T08:06:43.079Z,2.77
2022-12-01T08:11:41.873Z,2.45
2022-12-01T08:16:40.673Z,2.48
2022-12-01T08:21:39.683Z,2.48
2022-12-01T08:26:38.520Z,2.09
2022-12-01T08:31:38.229Z,2.52
2022-12-01T08:36:37.409Z,2.42
2022-12-01T08:41:36.177Z,2.61
2022-12-01T08:46:36.307Z,2.71
2022-12-01T08:51:36.395Z,2.86
2022-12-01T08:56:38.429Z,2.65
2022-12-01T09:01:52.860Z,2.39
2022-12-01T09:06:54.107Z,2.37
2022-12-01T09:11:53.513Z,2.19
2022-12-01T09:16:52.388Z,2.18
2022-12-01T09:21:51.367Z,2.12
2022-12-01T09:26:50.476Z,2.31
2022-12-01T09:31:49.365Z,2.66
2022-12-01T09:36:48.734Z,2.68
2022-12-01T09:41:53.093Z,2.43
2022-12-01T09:47:08.736Z,2.67
2022-12-01T09:52:12.700Z,2.74
2022-12-01T09:57:44.819Z,2.82
2022-12-01T10:02:49.351Z,2.59
2022-12-01T10:08:12.157Z,2.65
2022-12-01T10:13:20.177Z,2.56
2022-12-01T10:18:22.140Z,2.55
2022-12-01T10:23:26.866Z,2.43
2022-12-01T10:28:34.788Z,2.33
2022-12-01T10:33:51.280Z,2.01
2022-12-01T10:38:50.128Z,2.14
2022-12-01T10:43:57.812Z,2.22
2022-12-01T10:48:58.951Z,2.39
2022-12-01T10:54:00.398Z,2.63
2022-12-01T10:59:20.833Z,2.44
2022-12-01T11:04:46.293Z,2.70
2022-12-01T11:09:48.763Z,2.90
2022-12-01T11:14:51.073Z,3.14
2022-12-01T11:19:50.007Z,3.02
2022-12-01T11:24:55.150Z,3.00
2022-12-01T11:30:22.510Z,3.28
2022-12-01T11:35:24.274Z,3.27
2022-12-01T11:40:44.822Z,3.14
2022-12-01T11:45:45.031Z,3.26
2022-12-01T11:50:59.530Z,3.29
2022-12-01T11:56:20.833Z,3.40
2022-12-01T12:01:31.824Z,3.47
2022-12-01T12:06:55.253Z,3.26
2022-12-01T12:12:12.635Z,3.27
2022-12-01T12:17:20.400Z,2.95
2022-12-01T12:22:55.870Z,3.11
2022-12-01T12:28:10.191Z,3.24
2022-12-01T12:33:38.509Z,2.88
2022-12-01T12:38:52.168Z,3.13
2022-12-01T12:44:00.148Z,3.02
2022-12-01T12:49:42.672Z,3.32
2022-12-01T12:54:57.815Z,3.07
2022-12-01T13:00:05.079Z,3.23
2022-12-01T13:05:10.581Z,3.20
2022-12-01T13:10:20.658Z,2.95
2022-12-01T13:15:21.320Z,3.13
2022-12-01T13:20:25.191Z,2.81
2022-12-01T13:25:33.151Z,3.08
2022-12-01T13:30:31.982Z,3.21
2022-12-01T13:35:36.023Z,3.00
2022-12-01T13:40:35.002Z,2.98
2022-12-01T13:45:36.951Z,2.61
2022-12-01T13:50:46.024Z,2.74
2022-12-01T13:56:17.357Z,2.73
2022-12-01T14:01:22.866Z,3.02
2022-12-01T14:06:31.223Z,3.24
2022-12-01T14:11:32.388Z,3.07
2022-12-01T14:16:52.000Z,3.23
2022-12-01T14:21:52.008Z,3.05
2022-12-01T14:26:52.773Z,3.11
2022-12-01T14:31:51.491Z,3.21
2022-12-01T14:37:07.953Z,3.06
2022-12-01T14:42:48.806Z,3.13
2022-12-01T14:48:02.747Z,2.93
2022-12-01T14:53:09.190Z,2.80
2022-12-01T14:58:17.044Z,2.79
2022-12-01T15:03:15.876Z,2.75
2022-12-01T15:13:50.626Z,2.56
2022-12-01T15:18:49.982Z,2.55
2022-12-01T15:24:05.440Z,2.53
2022-12-01T15:29:14.082Z,2.48
2022-12-01T15:34:38.207Z,2.26
2022-12-01T15:39:43.287Z,2.35
2022-12-01T15:44:42.065Z,2.51
2022-12-01T15:49:49.250Z,2.37
2022-12-01T15:54:49.453Z,2.74
2022-12-01T15:59:57.348Z,2.55
2022-12-01T16:05:17.993Z,2.57
2022-12-01T16:10:30.471Z,2.57
2022-12-01T16:15:29.317Z,2.34
2022-12-01T16:20:34.096Z,2.72
2022-12-01T16:25:36.757Z,2.96
2022-12-01T16:30:38.749Z,2.61
2022-12-01T16:35:37.643Z,2.41
2022-12-01T16:40:36.438Z,2.40
2022-12-01T16:45:35.158Z,2.28
2022-12-01T16:50:34.003Z,2.37
2022-12-01T16:55:43.563Z,2.49
2022-12-01T17:00:42.442Z,2.74
2022-12-01T17:05:42.036Z,2.48
2022-12-01T17:10:43.026Z,2.75
2022-12-01T17:15:43.337Z,2.75
2022-12-01T17:20:42.236Z,2.87
2022-12-01T17:25:41.869Z,2.99
2022-12-01T17:30:40.842Z,2.99
2022-12-01T17:35:40.152Z,2.77
2022-12-01T17:40:39.162Z,2.61
2022-12-01T17:45:42.062Z,2.84
2022-12-01T17:50:40.976Z,2.80
2022-12-01T17:55:40.106Z,3.01
2022-12-01T18:00:39.125Z,3.06
2022-12-01T18:05:38.495Z,3.13
2022-12-01T18:10:38.102Z,3.11
2022-12-01T18:15:39.857Z,3.14
2022-12-01T18:20:45.236Z,3.06
2022-12-01T18:25:45.348Z,3.00
2022-12-01T18:30:44.167Z,3.21
2022-12-01T18:35:44.347Z,3.07
2022-12-01T18:40:43.156Z,3.06
2022-12-01T18:45:42.047Z,3.08
2022-12-01T18:50:40.827Z,3.14
2022-12-01T18:55:39.656Z,3.13
2022-12-01T19:00:38.464Z,3.00
2022-12-01T19:05:39.115Z,3.13
2022-12-01T19:10:38.156Z,3.14
2022-12-01T19:15:37.584Z,3.14
2022-12-01T19:20:37.945Z,3.09
2022-12-01T19:25:36.825Z,3.20
2022-12-01T19:30:36.046Z,3.15
2022-12-01T19:35:35.047Z,2.95
2022-12-01T19:40:33.957Z,3.27
2022-12-01T19:45:33.755Z,3.22
2022-12-01T19:50:36.664Z,3.08
2022-12-01T19:55:38.580Z,3.17
2022-12-01T20:00:37.362Z,3.33
2022-12-01T20:05:36.255Z,3.10
2022-12-01T20:10:35.032Z,3.19
2022-12-01T20:15:33.748Z,3.20
2022-12-01T20:20:32.448Z,3.13
2022-12-01T20:25:31.229Z,3.06
2022-12-01T20:30:29.988Z,2.90
2022-12-01T20:35:28.780Z,3.32
2022-12-01T20:40:28.934Z,3.22
2022-12-01T20:45:27.714Z,2.97
2022-12-01T20:50:26.580Z,6.11
2022-12-01T20:55:25.395Z,5.09
2022-12-01T21:00:24.112Z,3.74
2022-12-01T21:05:26.602Z,3.55
2022-12-01T21:10:25.700Z,3.63
2022-12-01T21:15:30.039Z,3.50
2022-12-01T21:20:42.920Z,3.66
2022-12-01T21:25:42.684Z,3.65
2022-12-01T21:30:41.708Z,3.74
2022-12-01T21:35:40.511Z,3.59
2022-12-01T21:40:43.946Z,3.82
2022-12-01T21:45:42.733Z,3.61
2022-12-01T21:50:41.584Z,3.85
2022-12-01T21:55:43.516Z,3.78
2022-12-01T22:00:42.595Z,3.78
2022-12-01T22:06:07.092Z,3.68
2022-12-01T22:11:38.536Z,3.95
2022-12-01T22:16:45.575Z,4.02
2022-12-01T22:21:46.807Z,4.07
2022-12-01T22:26:53.423Z,3.88
2022-12-01T22:32:03.631Z,3.94
2022-12-01T22:37:04.712Z,3.74
2022-12-01T22:42:09.675Z,4.07
2022-12-01T22:47:09.923Z,3.88
2022-12-01T22:52:27.526Z,3.76
2022-12-01T22:57:34.987Z,3.76
2022-12-01T23:02:34.836Z,3.98
2022-12-01T23:07:42.478Z,3.74
2022-12-01T23:12:42.210Z,3.98
2022-12-01T23:17:40.978Z,4.16
2022-12-01T23:22:40.165Z,4.08
2022-12-01T23:27:38.946Z,4.08
2022-12-01T23:32:37.655Z,3.86
2022-12-01T23:37:41.684Z,3.73
2022-12-01T23:42:40.626Z,4.06
2022-12-01T23:47:39.518Z,3.86
2022-12-01T23:52:38.313Z,3.86
2022-12-01T23:57:37.542Z,3.89
